INFORMACIÓN METAR y TAF
METAR FOR LICJ
ADDS - METARS form results

(2215 UTC 13 August 2022)
Data provider http://aviationweather.gov/metar/data/
 
METAR text: LICJ 132150Z AUTO 17005KT 9999 FEW020/// 27/23 Q1011
Conditions at: LICJ (PALERMO/POINT RA, IT) observed 2150 UTC 13 August 2022
Temperature: 27.0°C (81°F)
Dewpoint: 23.0°C (73°F) [RH = 79%]
Pressure (altimeter): 29.85 inches Hg (1011.0 mb)
Winds: from the S (170 degrees) at 6 MPH (5 knots; 2.6 m/s)
Visibility: 6 or more miles (10+ km)
Ceiling: at least 12,000 feet AGL
Clouds: few clouds at 2000 feet AGL
Weather: no significant weather observed at this time

METAR text: LICJ 132120Z AUTO 19004KT 9999 NCD 27/23 Q1011
Conditions at: LICJ (PALERMO/POINT RA, IT) observed 2120 UTC 13 August 2022
Temperature: 27.0°C (81°F)
Dewpoint: 23.0°C (73°F) [RH = 79%]
Pressure (altimeter): 29.85 inches Hg (1011.0 mb)
Winds: from the S (190 degrees) at 5 MPH (4 knots; 2.1 m/s)
Visibility: 6 or more miles (10+ km)
Ceiling: at least 12,000 feet AGL
Clouds: sky clear below 12,000 feet AGL
Weather: no significant weather observed at this time

Forecast for: LICJ (PALERMO/POINT RA, IT)
Text: TAF LICJ 131700Z 1318/1418 29010KT 9999 FEW030
Forecast period: 1800 UTC 13 August 2022 to 1000 UTC 14 August 2022
Forecast type: FROM: standard forecast or significant change
Winds: from the WNW (290 degrees) at 12 MPH (10 knots; 5.1 m/s)
Visibility: 6 or more miles (10+ km)
Ceiling: at least 12,000 feet AGL
Clouds: few clouds at 3000 feet AGL
Weather: no significant weather forecast for this period
Text: BECMG 1410/1412 02012KT
Forecast period: 1000 to 1800 UTC 14 August 2022
Forecast type: BECOMING: Conditions expected to become as follows by 1200 UTC 14 August 2022
Winds: from the NNE (20 degrees) at 14 MPH (12 knots; 6.2 m/s)
Visibility: 6 or more miles (10+ km)
Ceiling: at least 12,000 feet AGL
Clouds: few clouds at 3000 feet AGL
Weather: no significant weather forecast for this period

 MAPA DE AEROPUERTO

 INFORMACIÓN DE PISTA